
Distance (Route):
Temperature : -56.6°C
Humidity : 8.8%
Pressure : 0hPa| Receiver | Frames | First received | Last received |
|---|---|---|---|
| LZ4TU-5 | 129 | 2026-08-30 23:08:30 | 2026-08-31 00:55:50 |
| Receiver | Date | Latitude | Longitude | Direction | Speed | Altitude | Climb | Temperature | Humidity | Pressure | Voltage | Killtimer | Uptime | BKT | XDATA |
|---|---|---|---|---|---|---|---|---|---|---|---|---|---|---|---|
| LZ4TU-5 | 2026-08-31 00:55:50 | -58.48132 | -57.27156 | 0° | 0km/h | 15505m | 0.0m/s | -56.6°C | 8.8% | 0hPa | 0V | 00:00:00 | 00:00:00 | 00:00:00 | |
| LZ4TU-5 | 2026-08-31 00:55:46 | -58.48132 | -57.27156 | 0° | 0km/h | 15505m | 0.0m/s | -56.9°C | 8.5% | 0hPa | 0V | 00:00:00 | 00:00:00 | 00:00:00 | |
| LZ4TU-5 | 2026-08-31 00:55:41 | -58.48132 | -57.27156 | 0° | 0km/h | 15505m | 0.0m/s | -57.0°C | 8.0% | 0hPa | 0V | 00:00:00 | 00:00:00 | 00:00:00 | |
| LZ4TU-5 | 2026-08-31 00:53:52 | -58.62213 | -55.48893 | 0° | 0km/h | 15552m | 0.0m/s | -57.9°C | 4.7% | 0hPa | 0V | 00:00:00 | 00:00:00 | 00:00:00 | |
| LZ4TU-5 | 2026-08-31 00:53:48 | -58.76587 | -47.43460 | 0° | 0km/h | 15599m | 0.0m/s | -58.2°C | 5.2% | 0hPa | 0V | 00:00:00 | 00:00:00 | 00:00:00 | |
| LZ4TU-5 | 2026-08-31 00:51:23 | -44.06375 | -14.16914 | 0° | 0km/h | 10298m | 0.0m/s | -57.7°C | 2.5% | 0hPa | 0V | 00:00:00 | 00:00:00 | 00:00:00 | |
| LZ4TU-5 | 2026-08-31 00:51:19 | -44.06375 | -14.16914 | 0° | 0km/h | 10298m | 0.0m/s | -57.4°C | 2.4% | 0hPa | 0V | 00:00:00 | 00:00:00 | 00:00:00 | |
| LZ4TU-5 | 2026-08-31 00:51:14 | -44.06375 | -14.16914 | 0° | 0km/h | 10298m | 0.0m/s | -57.1°C | 2.4% | 0hPa | 0V | 00:00:00 | 00:00:00 | 00:00:00 | |
| LZ4TU-5 | 2026-08-31 00:51:10 | -44.06375 | -14.16914 | 0° | 0km/h | 10298m | 0.0m/s | -56.5°C | 2.2% | 0hPa | 0V | 00:00:00 | 00:00:00 | 00:00:00 | |
| LZ4TU-5 | 2026-08-31 00:49:19 | -44.06375 | -14.16914 | 0° | 0km/h | 10298m | 0.0m/s | -58.7°C | 2.4% | 0hPa | 0V | 00:00:00 | 00:00:00 | 00:00:00 | |
| LZ4TU-5 | 2026-08-31 00:49:14 | -44.17937 | -15.72400 | 0° | 0km/h | 10341m | 0.0m/s | -58.8°C | 5.3% | 0hPa | 0V | 00:00:00 | 00:00:00 | 00:00:00 | |
| LZ4TU-5 | 2026-08-31 00:40:31 | -12.04839 | -77.04991 | 273° | 199km/h | 986m | 0.0m/s | -55.5°C | 4.0% | 0hPa | 0V | 00:00:00 | 00:00:00 | 00:00:00 | |
| LZ4TU-5 | 2026-08-31 00:40:28 | -12.04839 | -77.04991 | 273° | 199km/h | 986m | 0.0m/s | -55.5°C | 4.1% | 0hPa | 0V | 00:00:00 | 00:00:00 | 00:00:00 | |
| LZ4TU-5 | 2026-08-31 00:38:39 | -12.04839 | -77.04991 | 273° | 199km/h | 986m | 0.0m/s | -54.1°C | 3.7% | 0hPa | 0V | 00:00:00 | 00:00:00 | 00:00:00 | |
| LZ4TU-5 | 2026-08-31 00:38:34 | -12.04839 | -77.04991 | 273° | 199km/h | 986m | 0.0m/s | -54.3°C | 3.8% | 0hPa | 0V | 00:00:00 | 00:00:00 | 00:00:00 | |
| LZ4TU-5 | 2026-08-31 00:36:52 | -12.04839 | -77.04991 | 273° | 199km/h | 986m | 0.0m/s | -53.3°C | 3.6% | 0hPa | 0V | 00:00:00 | 00:00:00 | 00:00:00 | |
| LZ4TU-5 | 2026-08-31 00:36:47 | -12.04814 | -77.04736 | 257° | 199km/h | 987m | -0.3m/s | -53.4°C | 3.6% | 0hPa | 0V | 00:00:00 | 00:00:00 | 00:00:00 | |
| LZ4TU-5 | 2026-08-31 00:34:41 | -12.04414 | -77.04175 | 210° | 195km/h | 973m | 1.4m/s | -54.6°C | 3.8% | 0hPa | 0V | 00:00:00 | 00:00:00 | 00:00:00 | |
| LZ4TU-5 | 2026-08-31 00:32:51 | -12.04504 | -77.04236 | 219° | 201km/h | 969m | -2.6m/s | -56.0°C | 4.2% | 0hPa | 0V | 00:00:00 | 00:00:00 | 00:00:00 | |
| LZ4TU-5 | 2026-08-31 00:32:47 | -12.04332 | -77.04126 | 205° | 195km/h | 967m | -2.4m/s | -56.0°C | 4.2% | 0hPa | 0V | 00:00:00 | 00:00:00 | 00:00:00 | |
| LZ4TU-5 | 2026-08-31 00:32:42 | -12.04090 | -77.04048 | 192° | 203km/h | 974m | -3.8m/s | -55.9°C | 4.1% | 0hPa | 0V | 00:00:00 | 00:00:00 | 00:00:00 | |
| LZ4TU-5 | 2026-08-31 00:31:07 | -12.04756 | -77.04569 | 246° | 199km/h | 966m | 0.3m/s | -55.9°C | 4.1% | 0hPa | 0V | 00:00:00 | 00:00:00 | 00:00:00 | |
| LZ4TU-5 | 2026-08-31 00:31:02 | -12.04621 | -77.04352 | 230° | 203km/h | 966m | -1.1m/s | -56.0°C | 4.1% | 0hPa | 0V | 00:00:00 | 00:00:00 | 00:00:00 | |
| LZ4TU-5 | 2026-08-31 00:29:28 | -12.04801 | -77.05231 | 288° | 197km/h | 988m | 0.8m/s | -56.8°C | 4.3% | 0hPa | 0V | 00:00:00 | 00:00:00 | 00:00:00 | |
| LZ4TU-5 | 2026-08-31 00:29:23 | -12.04842 | -77.04979 | 273° | 199km/h | 986m | 0.6m/s | -56.8°C | 4.3% | 0hPa | 0V | 00:00:00 | 00:00:00 | 00:00:00 | |
| LZ4TU-5 | 2026-08-31 00:27:42 | -12.04686 | -77.05476 | 306° | 199km/h | 974m | 2.1m/s | -56.7°C | 0% | 0hPa | 0V | 00:00:00 | 00:00:00 | 00:00:00 | |
| LZ4TU-5 | 2026-08-31 00:26:06 | 44.34989 | 26.67098 | 0° | 0km/h | 20591m | 0.0m/s | -56.4°C | 1.2% | 0hPa | 0V | 00:00:00 | 00:00:00 | 00:00:00 | |
| LZ4TU-5 | 2026-08-31 00:26:02 | 44.34616 | 26.67282 | 328° | 29km/h | 20403m | 4.6m/s | -56.5°C | 1.2% | 0hPa | 0V | 00:00:00 | 00:00:00 | 00:00:00 | |
| LZ4TU-5 | 2026-08-31 00:24:22 | 44.34610 | 26.67287 | 325° | 29km/h | 20398m | 5.4m/s | -56.5°C | 1.2% | 0hPa | 0V | 00:00:00 | 00:00:00 | 00:00:00 | |
| LZ4TU-5 | 2026-08-31 00:24:18 | 44.34591 | 26.67312 | 312° | 22km/h | 20380m | 4.2m/s | -56.8°C | 1.2% | 0hPa | 0V | 00:00:00 | 00:00:00 | 00:00:00 | |
| LZ4TU-5 | 2026-08-31 00:22:41 | 44.34626 | 26.67670 | 31° | 5km/h | 19909m | 5.2m/s | -56.8°C | 1.2% | 0hPa | 0V | 00:00:00 | 00:00:00 | 00:00:00 | |
| LZ4TU-5 | 2026-08-31 00:22:37 | 44.34619 | 26.67665 | 33° | 11km/h | 19888m | 4.7m/s | -56.9°C | 1.2% | 0hPa | 0V | 00:00:00 | 00:00:00 | 00:00:00 | |
| LZ4TU-5 | 2026-08-31 00:21:02 | 44.34571 | 26.67707 | 0° | 0km/h | 19410m | 4.2m/s | -56.6°C | 1.3% | 0hPa | 0V | 00:00:00 | 00:00:00 | 00:00:00 | |
| LZ4TU-5 | 2026-08-31 00:20:57 | 44.34571 | 26.67711 | 243° | 4km/h | 19389m | 5.0m/s | -56.5°C | 1.3% | 0hPa | 0V | 00:00:00 | 00:00:00 | 00:00:00 | |
| LZ4TU-5 | 2026-08-31 00:19:22 | 44.34676 | 26.67668 | 114° | 24km/h | 18932m | 4.1m/s | -57.4°C | 1.3% | 0hPa | 0V | 00:00:00 | 00:00:00 | 00:00:00 | |
| LZ4TU-5 | 2026-08-31 00:19:18 | 44.34688 | 26.67632 | 126° | 22km/h | 18909m | 4.0m/s | -57.6°C | 1.4% | 0hPa | 0V | 00:00:00 | 00:00:00 | 00:00:00 | |
| LZ4TU-5 | 2026-08-31 00:17:40 | 44.34479 | 26.66956 | 52° | 9km/h | 18440m | 4.1m/s | -56.5°C | 1.4% | 0hPa | 0V | 00:00:00 | 00:00:00 | 00:00:00 | |
| LZ4TU-5 | 2026-08-31 00:17:36 | 44.34477 | 26.66943 | 98° | 13km/h | 18422m | 3.7m/s | -56.3°C | 1.4% | 0hPa | 0V | 00:00:00 | 00:00:00 | 00:00:00 | |
| LZ4TU-5 | 2026-08-31 00:15:55 | 44.34492 | 26.66580 | 98° | 24km/h | 17959m | 4.3m/s | -56.8°C | 1.5% | 0hPa | 0V | 00:00:00 | 00:00:00 | 00:00:00 | |
| LZ4TU-5 | 2026-08-31 00:15:50 | 44.34494 | 26.66545 | 103° | 16km/h | 17938m | 4.9m/s | -56.8°C | 1.5% | 0hPa | 0V | 00:00:00 | 00:00:00 | 00:00:00 | |
| LZ4TU-5 | 2026-08-31 00:14:22 | 44.34457 | 26.66109 | 65° | 22km/h | 17545m | 4.8m/s | -56.9°C | 1.7% | 0hPa | 0V | 00:00:00 | 00:00:00 | 00:00:00 | |
| LZ4TU-5 | 2026-08-31 00:14:17 | 44.34443 | 26.66070 | 72° | 31km/h | 17526m | 4.9m/s | -57.1°C | 1.7% | 0hPa | 0V | 00:00:00 | 00:00:00 | 00:00:00 | |
| LZ4TU-5 | 2026-08-31 00:12:47 | 44.34303 | 26.65457 | 126° | 15km/h | 17137m | 4.8m/s | -59.7°C | 2.0% | 0hPa | 0V | 00:00:00 | 00:00:00 | 00:00:00 | |
| LZ4TU-5 | 2026-08-31 00:12:44 | 44.34313 | 26.65446 | 162° | 15km/h | 17119m | 4.8m/s | -59.8°C | 0% | 0hPa | 0V | 00:00:00 | 00:00:00 | 00:00:00 | |
| LZ4TU-5 | 2026-08-31 00:11:08 | 44.34825 | 26.64965 | 114° | 42km/h | 16643m | 4.9m/s | -59.1°C | 1.9% | 0hPa | 0V | 00:00:00 | 00:00:00 | 00:00:00 | |
| LZ4TU-5 | 2026-08-31 00:11:03 | 44.34846 | 26.64892 | 114° | 47km/h | 16619m | 5.3m/s | -59.2°C | 1.9% | 0hPa | 0V | 00:00:00 | 00:00:00 | 00:00:00 | |
| LZ4TU-5 | 2026-08-31 00:09:06 | 44.34858 | 26.62989 | 62° | 40km/h | 16069m | 4.8m/s | -57.4°C | 1.9% | 0hPa | 0V | 00:00:00 | 00:00:00 | 00:00:00 | |
| LZ4TU-5 | 2026-08-31 00:09:00 | 44.34830 | 26.62934 | 53° | 38km/h | 16045m | 4.8m/s | -57.2°C | 1.9% | 0hPa | 0V | 00:00:00 | 00:00:00 | 00:00:00 | |
| LZ4TU-5 | 2026-08-31 00:07:06 | 44.34503 | 26.61690 | 118° | 40km/h | 15524m | 6.1m/s | -59.5°C | 2.9% | 0hPa | 0V | 00:00:00 | 00:00:00 | 00:00:00 | |
| LZ4TU-5 | 2026-08-31 00:07:01 | 44.34533 | 26.61637 | 132° | 40km/h | 15496m | 5.6m/s | -59.9°C | 3.1% | 0hPa | 0V | 00:00:00 | 00:00:00 | 00:00:00 | |
| LZ4TU-5 | 2026-08-31 00:05:12 | 44.34929 | 26.60061 | 103° | 40km/h | 15026m | 5.2m/s | -59.0°C | 3.8% | 0hPa | 0V | 00:00:00 | 00:00:00 | 00:00:00 | |
| LZ4TU-5 | 2026-08-31 00:05:07 | 44.34943 | 26.60000 | 105° | 33km/h | 15002m | 3.8m/s | -58.8°C | 3.8% | 0hPa | 0V | 00:00:00 | 00:00:00 | 00:00:00 | |
| LZ4TU-5 | 2026-08-31 00:03:33 | 44.35590 | 26.58726 | 114° | 51km/h | 14563m | 3.9m/s | -58.3°C | 5.5% | 0hPa | 0V | 00:00:00 | 00:00:00 | 00:00:00 | |
| LZ4TU-5 | 2026-08-31 00:03:26 | 44.35616 | 26.58645 | 116° | 49km/h | 14543m | 4.0m/s | -58.2°C | 5.6% | 0hPa | 0V | 00:00:00 | 00:00:00 | 00:00:00 | |
| LZ4TU-5 | 2026-08-31 00:02:09 | 44.35681 | 26.57213 | 95° | 29km/h | 14109m | 5.1m/s | -57.8°C | 7.0% | 0hPa | 0V | 00:00:00 | 00:00:00 | 00:00:00 | |
| LZ4TU-5 | 2026-08-31 00:02:01 | 44.35685 | 26.57167 | 98° | 26km/h | 14088m | 3.7m/s | -57.7°C | 7.1% | 0hPa | 0V | 00:00:00 | 00:00:00 | 00:00:00 | |
| LZ4TU-5 | 2026-08-31 00:00:09 | 44.35982 | 26.55951 | 114° | 55km/h | 13713m | 4.8m/s | -57.6°C | 8.3% | 0hPa | 0V | 00:00:00 | 00:00:00 | 00:00:00 | |
| LZ4TU-5 | 2026-08-31 00:00:02 | 44.36010 | 26.55861 | 114° | 57km/h | 13692m | 4.3m/s | -57.6°C | 0% | 0hPa | 0V | 00:00:00 | 00:00:00 | 00:00:00 | |
| LZ4TU-5 | 2026-08-30 23:58:36 | 44.36488 | 26.54130 | 100° | 62km/h | 13339m | 4.4m/s | -57.5°C | 11.2% | 0hPa | 0V | 00:00:00 | 00:00:00 | 00:00:00 | |
| LZ4TU-5 | 2026-08-30 23:58:31 | 44.36502 | 26.54030 | 105° | 57km/h | 13317m | 3.8m/s | -57.4°C | 11.4% | 0hPa | 0V | 00:00:00 | 00:00:00 | 00:00:00 | |
| LZ4TU-5 | 2026-08-30 23:56:59 | 44.36663 | 26.52427 | 113° | 53km/h | 12950m | 4.1m/s | -57.0°C | 15.2% | 0hPa | 0V | 00:00:00 | 00:00:00 | 00:00:00 | |
| LZ4TU-5 | 2026-08-30 23:56:54 | 44.36689 | 26.52342 | 114° | 51km/h | 12930m | 4.5m/s | -56.9°C | 15.5% | 0hPa | 0V | 00:00:00 | 00:00:00 | 00:00:00 | |
| LZ4TU-5 | 2026-08-30 23:55:24 | 44.37057 | 26.50710 | 110° | 57km/h | 12581m | 4.0m/s | -55.4°C | 15.6% | 0hPa | 0V | 00:00:00 | 00:00:00 | 00:00:00 | |
| LZ4TU-5 | 2026-08-30 23:55:19 | 44.37078 | 26.50614 | 106° | 57km/h | 12562m | 4.5m/s | -55.2°C | 15.6% | 0hPa | 0V | 00:00:00 | 00:00:00 | 00:00:00 | |
| LZ4TU-5 | 2026-08-30 23:53:47 | 44.37340 | 26.48777 | 104° | 71km/h | 12208m | 3.7m/s | -54.5°C | 17.9% | 0hPa | 0V | 00:00:00 | 00:00:00 | 00:00:00 | |
| LZ4TU-5 | 2026-08-30 23:53:43 | 44.37360 | 26.48662 | 106° | 62km/h | 12189m | 3.5m/s | -54.3°C | 16.9% | 0hPa | 0V | 00:00:00 | 00:00:00 | 00:00:00 | |
| LZ4TU-5 | 2026-08-30 23:52:04 | 44.37747 | 26.46200 | 99° | 78km/h | 11812m | 3.8m/s | 0°C | 0% | 0hPa | 0V | 00:00:00 | 00:00:00 | 00:00:00 | |
| LZ4TU-5 | 2026-08-30 23:52:00 | 44.37760 | 26.46065 | 98° | 77km/h | 11794m | 3.2m/s | 0°C | 0% | 0hPa | 0V | 00:00:00 | 00:00:00 | 00:00:00 | |
| LZ4TU-5 | 2026-08-30 23:50:19 | 44.38111 | 26.43655 | 98° | 73km/h | 11399m | 4.2m/s | 0°C | 0% | 0hPa | 0V | 00:00:00 | 00:00:00 | 00:00:00 | |
| LZ4TU-5 | 2026-08-30 23:50:14 | 44.38121 | 26.43554 | 100° | 71km/h | 11384m | 4.0m/s | 0°C | 0% | 0hPa | 0V | 00:00:00 | 00:00:00 | 00:00:00 | |
| LZ4TU-5 | 2026-08-30 23:48:33 | 44.38551 | 26.41110 | 107° | 60km/h | 10984m | 4.7m/s | 0°C | 0% | 0hPa | 0V | 00:00:00 | 00:00:00 | 00:00:00 | |
| LZ4TU-5 | 2026-08-30 23:48:29 | 44.38568 | 26.41027 | 106° | 62km/h | 10969m | 4.1m/s | 0°C | 0% | 0hPa | 0V | 00:00:00 | 00:00:00 | 00:00:00 | |
| LZ4TU-5 | 2026-08-30 23:46:48 | 44.39115 | 26.39191 | 119° | 51km/h | 10562m | 4.6m/s | 0°C | 0% | 0hPa | 0V | 00:00:00 | 00:00:00 | 00:00:00 | |
| LZ4TU-5 | 2026-08-30 23:46:42 | 44.39147 | 26.39112 | 123° | 53km/h | 10542m | 3.8m/s | 0°C | 0% | 0hPa | 0V | 00:00:00 | 00:00:00 | 00:00:00 | |
| LZ4TU-5 | 2026-08-30 23:44:35 | 44.39931 | 26.37001 | 117° | 51km/h | 10029m | 3.7m/s | 0°C | 0% | 0hPa | 0V | 00:00:00 | 00:00:00 | 00:00:00 | |
| LZ4TU-5 | 2026-08-30 23:44:31 | 44.39955 | 26.36940 | 123° | 49km/h | 10013m | 4.1m/s | 0°C | 0% | 0hPa | 0V | 00:00:00 | 00:00:00 | 00:00:00 | |
| LZ4TU-5 | 2026-08-30 23:42:56 | 44.40515 | 26.35505 | 124° | 46km/h | 9630m | 4.7m/s | 0°C | 0% | 0hPa | 0V | 00:00:00 | 00:00:00 | 00:00:00 | |
| LZ4TU-5 | 2026-08-30 23:42:51 | 44.40540 | 26.35447 | 120° | 49km/h | 9614m | 4.3m/s | 0°C | 0% | 0hPa | 0V | 00:00:00 | 00:00:00 | 00:00:00 | |
| LZ4TU-5 | 2026-08-30 23:41:11 | 44.41071 | 26.34096 | 119° | 42km/h | 9253m | 2.8m/s | 0°C | 0% | 0hPa | 0V | 00:00:00 | 00:00:00 | 00:00:00 | |
| LZ4TU-5 | 2026-08-30 23:41:07 | 44.41098 | 26.34030 | 123° | 42km/h | 9235m | 4.4m/s | 0°C | 0% | 0hPa | 0V | 00:00:00 | 00:00:00 | 00:00:00 | |
| LZ4TU-5 | 2026-08-30 23:39:43 | 44.41532 | 26.33010 | 126° | 38km/h | 8939m | 2.9m/s | 0°C | 0% | 0hPa | 0V | 00:00:00 | 00:00:00 | 00:00:00 | |
| LZ4TU-5 | 2026-08-30 23:39:38 | 44.41558 | 26.32951 | 120° | 40km/h | 8921m | 3.5m/s | 0°C | 0% | 0hPa | 0V | 00:00:00 | 00:00:00 | 00:00:00 | |
| LZ4TU-5 | 2026-08-30 23:38:13 | 44.41935 | 26.31955 | 117° | 38km/h | 8619m | 3.7m/s | 0°C | 0% | 0hPa | 0V | 00:00:00 | 00:00:00 | 00:00:00 | |
| LZ4TU-5 | 2026-08-30 23:38:10 | 44.41953 | 26.31905 | 119° | 38km/h | 8603m | 3.2m/s | 0°C | 0% | 0hPa | 0V | 00:00:00 | 00:00:00 | 00:00:00 | |
| LZ4TU-5 | 2026-08-30 23:36:54 | 44.42296 | 26.30949 | 129° | 47km/h | 8324m | 2.5m/s | 0°C | 0% | 0hPa | 0V | 00:00:00 | 00:00:00 | 00:00:00 | |
| LZ4TU-5 | 2026-08-30 23:36:50 | 44.42329 | 26.30884 | 121° | 44km/h | 8307m | 3.2m/s | 0°C | 0% | 0hPa | 0V | 00:00:00 | 00:00:00 | 00:00:00 | |
| LZ4TU-5 | 2026-08-30 23:35:34 | 44.42705 | 26.29885 | 118° | 44km/h | 8007m | 4.3m/s | 0°C | 0% | 0hPa | 0V | 00:00:00 | 00:00:00 | 00:00:00 | |
| LZ4TU-5 | 2026-08-30 23:35:29 | 44.42727 | 26.29832 | 121° | 44km/h | 7991m | 4.9m/s | 0°C | 0% | 0hPa | 0V | 00:00:00 | 00:00:00 | 00:00:00 | |
| LZ4TU-5 | 2026-08-30 23:34:10 | 44.43172 | 26.28775 | 124° | 44km/h | 7662m | 4.6m/s | 0°C | 0% | 0hPa | 0V | 00:00:00 | 00:00:00 | 00:00:00 | |
| LZ4TU-5 | 2026-08-30 23:34:05 | 44.43205 | 26.28708 | 127° | 46km/h | 7642m | 3.7m/s | 0°C | 0% | 0hPa | 0V | 00:00:00 | 00:00:00 | 00:00:00 | |
| LZ4TU-5 | 2026-08-30 23:32:44 | 44.43729 | 26.27714 | 131° | 44km/h | 7312m | 3.6m/s | 0°C | 0% | 0hPa | 0V | 00:00:00 | 00:00:00 | 00:00:00 | |
| LZ4TU-5 | 2026-08-30 23:31:34 | 44.44165 | 26.26912 | 126° | 40km/h | 7028m | 3.1m/s | 0°C | 0% | 0hPa | 0V | 00:00:00 | 00:00:00 | 00:00:00 | |
| LZ4TU-5 | 2026-08-30 23:31:30 | 44.44195 | 26.26856 | 127° | 38km/h | 7007m | 5.1m/s | 0°C | 0% | 0hPa | 0V | 00:00:00 | 00:00:00 | 00:00:00 | |
| LZ4TU-5 | 2026-08-30 23:30:12 | 44.44639 | 26.25935 | 125° | 44km/h | 6709m | 3.6m/s | 0°C | 0% | 0hPa | 0V | 00:00:00 | 00:00:00 | 00:00:00 | |
| LZ4TU-5 | 2026-08-30 23:30:07 | 44.44670 | 26.25873 | 128° | 40km/h | 6689m | 4.0m/s | 0°C | 0% | 0hPa | 0V | 00:00:00 | 00:00:00 | 00:00:00 | |
| LZ4TU-5 | 2026-08-30 23:27:42 | 44.45516 | 26.24079 | 119° | 38km/h | 6160m | 3.7m/s | 0°C | 0% | 0hPa | 0V | 00:00:00 | 00:00:00 | 00:00:00 | |
| LZ4TU-5 | 2026-08-30 23:27:38 | 44.45533 | 26.24030 | 118° | 40km/h | 6146m | 2.9m/s | 0°C | 0% | 0hPa | 0V | 00:00:00 | 00:00:00 | 00:00:00 | |
| LZ4TU-5 | 2026-08-30 23:26:29 | 44.45886 | 26.23343 | 124° | 31km/h | 5865m | 5.1m/s | 0°C | 0% | 0hPa | 0V | 00:00:00 | 00:00:00 | 00:00:00 | |
| LZ4TU-5 | 2026-08-30 23:26:24 | 44.45914 | 26.23304 | 144° | 37km/h | 5844m | 4.9m/s | 0°C | 0% | 0hPa | 0V | 00:00:00 | 00:00:00 | 00:00:00 | |
| LZ4TU-5 | 2026-08-30 23:24:49 | 44.46469 | 26.22527 | 135° | 31km/h | 5482m | 2.9m/s | 0°C | 0% | 0hPa | 0V | 00:00:00 | 00:00:00 | 00:00:00 | |
| LZ4TU-5 | 2026-08-30 23:24:44 | 44.46496 | 26.22486 | 132° | 31km/h | 5466m | 3.8m/s | 0°C | 0% | 0hPa | 0V | 00:00:00 | 00:00:00 | 00:00:00 | |
| LZ4TU-5 | 2026-08-30 23:23:40 | 44.46821 | 26.22013 | 132° | 27km/h | 5238m | 4.5m/s | 0°C | 0% | 0hPa | 0V | 00:00:00 | 00:00:00 | 00:00:00 | |
| LZ4TU-5 | 2026-08-30 23:23:36 | 44.46839 | 26.21985 | 133° | 26km/h | 5223m | 4.3m/s | 0°C | 0% | 0hPa | 0V | 00:00:00 | 00:00:00 | 00:00:00 | |
| LZ4TU-5 | 2026-08-30 23:22:33 | 44.47144 | 26.21659 | 155° | 24km/h | 4985m | 3.9m/s | 0°C | 0% | 0hPa | 0V | 00:00:00 | 00:00:00 | 00:00:00 | |
| LZ4TU-5 | 2026-08-30 23:22:29 | 44.47164 | 26.21642 | 150° | 24km/h | 4971m | 4.1m/s | 0°C | 0% | 0hPa | 0V | 00:00:00 | 00:00:00 | 00:00:00 | |
| LZ4TU-5 | 2026-08-30 23:21:26 | 44.47454 | 26.21461 | 135° | 16km/h | 4736m | 5.4m/s | 0°C | 0% | 0hPa | 0V | 00:00:00 | 00:00:00 | 00:00:00 | |
| LZ4TU-5 | 2026-08-30 23:21:21 | 44.47470 | 26.21452 | 171° | 16km/h | 4714m | 3.3m/s | 0°C | 0% | 0hPa | 0V | 00:00:00 | 00:00:00 | 00:00:00 | |
| LZ4TU-5 | 2026-08-30 23:20:17 | 44.47693 | 26.21225 | 145° | 20km/h | 4464m | 4.1m/s | 0°C | 0% | 0hPa | 0V | 00:00:00 | 00:00:00 | 00:00:00 | |
| LZ4TU-5 | 2026-08-30 23:20:13 | 44.47708 | 26.21209 | 145° | 18km/h | 4448m | 4.4m/s | 0°C | 0% | 0hPa | 0V | 00:00:00 | 00:00:00 | 00:00:00 | |
| LZ4TU-5 | 2026-08-30 23:19:11 | 44.47893 | 26.20932 | 130° | 13km/h | 4190m | 4.1m/s | 0°C | 0% | 0hPa | 0V | 00:00:00 | 00:00:00 | 00:00:00 | |
| LZ4TU-5 | 2026-08-30 23:19:06 | 44.47910 | 26.20917 | 156° | 18km/h | 4161m | 5.9m/s | 0°C | 0% | 0hPa | 0V | 00:00:00 | 00:00:00 | 00:00:00 | |
| LZ4TU-5 | 2026-08-30 23:18:04 | 44.48200 | 26.20741 | 157° | 22km/h | 3924m | 3.6m/s | 0°C | 0% | 0hPa | 0V | 00:00:00 | 00:00:00 | 00:00:00 | |
| LZ4TU-5 | 2026-08-30 23:17:59 | 44.48224 | 26.20727 | 158° | 18km/h | 3904m | 4.3m/s | 0°C | 0% | 0hPa | 0V | 00:00:00 | 00:00:00 | 00:00:00 | |
| LZ4TU-5 | 2026-08-30 23:16:57 | 44.48542 | 26.20535 | 146° | 20km/h | 3679m | 3.7m/s | 0°C | 0% | 0hPa | 0V | 00:00:00 | 00:00:00 | 00:00:00 | |
| LZ4TU-5 | 2026-08-30 23:16:52 | 44.48561 | 26.20518 | 153° | 18km/h | 3660m | 4.4m/s | 0°C | 0% | 0hPa | 0V | 00:00:00 | 00:00:00 | 00:00:00 | |
| LZ4TU-5 | 2026-08-30 23:15:48 | 44.48849 | 26.20397 | 169° | 13km/h | 3406m | 4.1m/s | 0°C | 0% | 0hPa | 0V | 00:00:00 | 00:00:00 | 00:00:00 | |
| LZ4TU-5 | 2026-08-30 23:15:44 | 44.48862 | 26.20395 | 178° | 15km/h | 3392m | 4.0m/s | 0°C | 0% | 0hPa | 0V | 00:00:00 | 00:00:00 | 00:00:00 | |
| LZ4TU-5 | 2026-08-30 23:14:46 | 44.49055 | 26.20377 | 173° | 11km/h | 3174m | 3.3m/s | 0°C | 0% | 0hPa | 0V | 00:00:00 | 00:00:00 | 00:00:00 | |
| LZ4TU-5 | 2026-08-30 23:14:42 | 44.49064 | 26.20377 | 187° | 7km/h | 3158m | 4.6m/s | 0°C | 0% | 0hPa | 0V | 00:00:00 | 00:00:00 | 00:00:00 | |
| LZ4TU-5 | 2026-08-30 23:13:44 | 44.49232 | 26.20494 | 207° | 13km/h | 2935m | 4.5m/s | 0°C | 0% | 0hPa | 0V | 00:00:00 | 00:00:00 | 00:00:00 | |
| LZ4TU-5 | 2026-08-30 23:13:39 | 44.49249 | 26.20508 | 204° | 11km/h | 2915m | 3.5m/s | 0°C | 0% | 0hPa | 0V | 00:00:00 | 00:00:00 | 00:00:00 | |
| LZ4TU-5 | 2026-08-30 23:12:41 | 44.49448 | 26.20522 | 185° | 13km/h | 2698m | 3.9m/s | 0°C | 0% | 0hPa | 0V | 00:00:00 | 00:00:00 | 00:00:00 | |
| LZ4TU-5 | 2026-08-30 23:12:36 | 44.49464 | 26.20523 | 186° | 15km/h | 2680m | 4.3m/s | 0°C | 0% | 0hPa | 0V | 00:00:00 | 00:00:00 | 00:00:00 | |
| LZ4TU-5 | 2026-08-30 23:11:38 | 44.49666 | 26.20547 | 180° | 16km/h | 2447m | 5.1m/s | 0°C | 0% | 0hPa | 0V | 00:00:00 | 00:00:00 | 00:00:00 | |
| LZ4TU-5 | 2026-08-30 23:11:33 | 44.49685 | 26.20545 | 184° | 15km/h | 2429m | 2.9m/s | 0°C | 0% | 0hPa | 0V | 00:00:00 | 00:00:00 | 00:00:00 | |
| LZ4TU-5 | 2026-08-30 23:10:35 | 44.49897 | 26.20469 | 160° | 13km/h | 2217m | 4.4m/s | 0°C | 0% | 0hPa | 0V | 00:00:00 | 00:00:00 | 00:00:00 | |
| LZ4TU-5 | 2026-08-30 23:10:31 | 44.49910 | 26.20466 | 168° | 16km/h | 2202m | 3.7m/s | 0°C | 0% | 0hPa | 0V | 00:00:00 | 00:00:00 | 00:00:00 | |
| LZ4TU-5 | 2026-08-30 23:09:34 | 44.50123 | 26.20480 | 214° | 15km/h | 1983m | 3.2m/s | 0°C | 0% | 0hPa | 0V | 00:00:00 | 00:00:00 | 00:00:00 | |
| LZ4TU-5 | 2026-08-30 23:08:30 | 44.50449 | 26.20413 | 189° | 26km/h | 1709m | 5.6m/s | 0°C | 0% | 0hPa | 0V | 00:00:00 | 00:00:00 | 00:00:00 |